Time;durP1;ratioP1;P1;durP2;ratioP2;P2;SDS_P1;SDS_P2;PMS_P1;PMS_P2;Temp;Humidity;BMP_temperature;BMP_pressure;BME280_temperature;BME280_humidity;BME280_pressure;Samples;Min_cycle;Max_cycle;Signal;HPM_P1;HPM_P2
2022/03/29 00:00:12;;;;;;;72.55;33.75;;;;;;;8.43;87.74;101694.19;5072300;28;20032;-78
2022/03/29 00:02:37;;;;;;;67.80;34.95;;;;;;;8.31;87.87;101694.31;5072936;28;20033;-77
2022/03/29 00:05:04;;;;;;;65.18;32.83;;;;;;;8.25;88.27;101688.72;5071453;28;20432;-78
2022/03/29 00:07:30;;;;;;;67.18;32.75;;;;;;;8.21;88.86;101688.13;5072312;28;20052;-80
2022/03/29 00:09:55;;;;;;;67.22;32.13;;;;;;;8.23;88.53;101690.69;5073803;28;20047;-79
2022/03/29 00:12:21;;;;;;;64.30;32.53;;;;;;;8.17;88.12;101685.91;5075643;28;20111;-80
2022/03/29 00:14:46;;;;;;;62.13;32.25;;;;;;;8.14;88.36;101685.22;5077204;28;20029;-77
2022/03/29 00:17:11;;;;;;;63.88;32.78;;;;;;;8.13;88.40;101675.44;5077994;28;20028;-78
2022/03/29 00:19:36;;;;;;;63.80;32.08;;;;;;;8.11;88.53;101676.63;5078671;28;20025;-80
2022/03/29 00:22:02;;;;;;;67.95;33.63;;;;;;;8.07;88.41;101670.69;5077855;28;20121;-78
2022/03/29 00:24:27;;;;;;;70.65;32.85;;;;;;;8.12;88.29;101673.78;5075072;28;20059;-78
2022/03/29 00:26:53;;;;;;;62.78;32.33;;;;;;;8.11;88.57;101666.72;5074833;28;20060;-79
2022/03/29 00:29:18;;;;;;;67.57;32.88;;;;;;;8.07;88.43;101651.06;5073893;28;20025;-79
2022/03/29 00:31:43;;;;;;;66.72;32.05;;;;;;;8.08;88.69;101661.66;5073713;28;20024;-78
2022/03/29 00:34:08;;;;;;;67.85;32.78;;;;;;;8.11;88.76;101653.31;5075183;28;20028;-79
2022/03/29 00:36:34;;;;;;;69.82;32.40;;;;;;;8.13;88.81;101664.72;5074751;28;20025;-80
2022/03/29 00:39:00;;;;;;;72.80;33.90;;;;;;;8.09;88.61;101652.63;5074380;28;20017;-78
2022/03/29 00:41:25;;;;;;;67.88;33.40;;;;;;;8.11;88.64;101650.66;5074470;28;20041;-79
2022/03/29 00:43:51;;;;;;;72.20;34.45;;;;;;;8.14;88.74;101649.50;5074333;28;20074;-77
2022/03/29 00:46:16;;;;;;;65.72;32.88;;;;;;;8.17;88.89;101648.38;5074376;28;20024;-77
2022/03/29 00:48:42;;;;;;;69.38;33.03;;;;;;;8.19;88.43;101646.38;5074614;28;20530;-78
2022/03/29 00:51:07;;;;;;;66.93;31.52;;;;;;;8.19;88.51;101636.50;5073159;28;20024;-78
2022/03/29 00:53:32;;;;;;;70.57;33.97;;;;;;;8.24;88.42;101644.09;5072446;28;20388;-78
2022/03/29 00:55:59;;;;;;;76.00;34.78;;;;;;;8.24;88.15;101638.72;5071207;28;20029;-78
2022/03/29 00:58:25;;;;;;;61.10;30.80;;;;;;;8.25;87.69;101630.56;5072700;28;20028;-79
2022/03/29 01:00:53;;;;;;;62.53;31.88;;;;;;;8.23;87.82;101637.88;5062437;28;20082;-79
2022/03/29 01:03:18;;;;;;;59.58;31.85;;;;;;;8.19;87.38;101641.88;5071453;28;20044;-77
2022/03/29 01:05:44;;;;;;;66.88;32.35;;;;;;;8.13;87.92;101624.50;5072086;28;20035;-79
2022/03/29 01:08:10;;;;;;;59.17;30.70;;;;;;;8.06;87.79;101618.06;5071899;28;20045;-78
2022/03/29 01:10:35;;;;;;;65.88;31.17;;;;;;;8.02;87.52;101624.69;5071856;28;20065;-77
2022/03/29 01:13:00;;;;;;;57.67;30.55;;;;;;;8.00;87.15;101621.31;5072318;28;20042;-77
2022/03/29 01:15:36;;;;;;;58.92;29.40;;;;;;;7.99;86.94;101622.31;5071119;28;20111;-77
2022/03/29 01:18:02;;;;;;;60.22;30.58;;;;;;;7.94;87.00;101616.53;5072328;28;20438;-77
2022/03/29 01:20:28;;;;;;;60.50;29.90;;;;;;;7.95;86.96;101620.06;5071614;28;20032;-77
2022/03/29 01:22:54;;;;;;;59.35;29.95;;;;;;;7.95;87.23;101609.34;5071178;28;20081;-78
2022/03/29 01:25:23;;;;;;;58.85;28.60;;;;;;;7.92;87.10;101618.50;5069957;28;20029;-78
2022/03/29 01:27:49;;;;;;;59.70;29.95;;;;;;;7.88;87.28;101617.13;5071849;28;20024;-79
2022/03/29 01:30:15;;;;;;;58.85;29.40;;;;;;;7.83;87.42;101609.53;5071594;28;20108;-77
2022/03/29 01:32:52;;;;;;;59.40;28.83;;;;;;;7.85;87.59;101602.19;5072050;28;20032;-78
2022/03/29 01:35:20;;;;;;;58.67;29.60;;;;;;;7.85;87.33;101602.19;5058680;28;20032;-76
2022/03/29 01:37:45;;;;;;;59.40;29.42;;;;;;;7.88;87.42;101595.69;5072168;28;20309;-78
2022/03/29 01:40:13;;;;;;;65.93;28.92;;;;;;;7.86;86.90;101597.66;5071657;28;20484;-78
2022/03/29 01:42:41;;;;;;;61.75;30.40;;;;;;;7.86;87.00;101601.19;5073323;28;20024;-78
2022/03/29 01:45:07;;;;;;;;;;;;;;;7.79;86.86;101596.56;5069166;28;20419;-79
2022/03/29 01:47:32;;;;;;;58.10;28.15;;;;;;;7.78;86.99;101586.84;5071488;28;19985;-77
2022/03/29 01:49:57;;;;;;;57.10;28.85;;;;;;;7.76;87.18;101595.00;5071340;28;20024;-77
2022/03/29 01:52:23;;;;;;;56.97;27.70;;;;;;;7.77;87.40;101590.53;5071859;28;20437;-77
2022/03/29 01:54:48;;;;;;;62.22;29.70;;;;;;;7.82;87.55;101581.03;5070843;28;20475;-79
2022/03/29 01:57:14;;;;;;;62.30;30.95;;;;;;;7.84;87.22;101583.56;5053659;28;20063;-79
2022/03/29 02:02:23;;;;;;;60.75;29.55;;;;;;;7.82;87.46;101580.19;5071394;28;20043;-78
2022/03/29 02:04:48;;;;;;;63.13;29.73;;;;;;;7.82;87.03;101574.81;5071267;28;20024;-78
2022/03/29 02:07:14;;;;;;;58.53;29.58;;;;;;;7.79;87.03;101575.94;5127541;22;20056;-34
2022/03/29 02:09:39;;;;;;;55.53;26.88;;;;;;;7.76;87.21;101570.06;5064669;28;20120;-32
2022/03/29 02:12:06;;;;;;;57.53;29.75;;;;;;;7.64;86.99;101567.56;5053049;28;20041;-34
2022/03/29 02:14:34;;;;;;;56.45;27.60;;;;;;;7.67;87.46;101561.91;5069848;28;20042;-34
2022/03/29 02:16:59;;;;;;;;;;;;;;;7.69;87.12;101559.09;5071446;28;20199;-32
2022/03/29 02:19:24;;;;;;;60.58;27.90;;;;;;;7.63;87.17;101559.66;5052701;28;19959;-33
2022/03/29 02:21:50;;;;;;;58.30;28.52;;;;;;;7.62;87.69;101553.44;5071406;28;20027;-34
2022/03/29 02:24:15;;;;;;;62.15;29.90;;;;;;;7.65;87.82;101553.16;5070906;28;20153;-33
2022/03/29 02:26:40;;;;;;;64.95;30.38;;;;;;;7.68;87.63;101558.22;5071099;28;20043;-35
2022/03/29 02:29:05;;;;;;;63.75;29.60;;;;;;;7.61;87.88;101546.41;5068914;28;20108;-33
2022/03/29 02:31:31;;;;;;;63.15;30.17;;;;;;;7.60;87.68;101539.34;5069397;28;20025;-36
2022/03/29 02:33:56;;;;;;;62.53;30.92;;;;;;;7.61;88.18;101538.38;5052567;28;20032;-35
2022/03/29 02:36:22;;;;;;;61.60;29.10;;;;;;;7.64;87.96;101531.88;5071018;28;20031;-32
2022/03/29 02:38:48;;;;;;;55.88;29.10;;;;;;;7.59;87.91;101532.31;5069983;28;20059;-33
2022/03/29 02:41:13;;;;;;;53.70;28.20;;;;;;;7.60;88.24;101530.47;5069479;28;20063;-33
2022/03/29 02:43:39;;;;;;;56.25;27.67;;;;;;;7.63;88.14;101533.69;5069705;28;20052;-32
2022/03/29 02:46:04;;;;;;;56.03;27.63;;;;;;;7.63;87.66;101525.66;5070881;28;20113;-34
2022/03/29 02:48:30;;;;;;;50.33;27.10;;;;;;;7.63;87.65;101514.94;5070650;28;20426;-32
2022/03/29 02:50:56;;;;;;;55.65;27.30;;;;;;;7.65;87.77;101515.66;5071174;28;20055;-35
2022/03/29 02:53:22;;;;;;;53.83;27.73;;;;;;;7.59;87.94;101516.25;5069779;28;20379;-31
2022/03/29 02:55:47;;;;;;;55.65;28.67;;;;;;;7.60;87.86;101514.41;5062943;28;20032;-33
2022/03/29 02:58:12;;;;;;;53.00;27.77;;;;;;;7.62;87.64;101504.41;5071925;28;20059;-35
2022/03/29 03:00:37;;;;;;;53.38;27.33;;;;;;;7.61;87.88;101511.59;5071138;28;20028;-32
2022/03/29 03:03:03;;;;;;;59.97;28.65;;;;;;;7.56;87.99;101511.19;5071522;28;20024;-32
2022/03/29 03:05:29;;;;;;;55.22;27.55;;;;;;;7.53;88.13;101498.09;5070903;28;20067;-32
2022/03/29 03:07:54;;;;;;;55.92;28.63;;;;;;;7.54;88.06;101499.75;5048685;28;20068;-33
2022/03/29 03:10:20;;;;;;;61.35;29.60;;;;;;;7.49;88.67;101485.97;5049829;28;20049;-35
2022/03/29 03:12:47;;;;;;;56.70;28.05;;;;;;;7.48;88.71;101487.81;5049227;28;20059;-34
2022/03/29 03:15:14;;;;;;;66.32;29.98;;;;;;;7.46;88.98;101486.25;5049946;28;20037;-33
2022/03/29 03:17:40;;;;;;;55.50;28.25;;;;;;;7.45;89.27;101489.91;5050902;28;20044;-34
2022/03/29 03:20:06;;;;;;;63.72;29.38;;;;;;;7.45;89.35;101492.59;5051075;28;20033;-32
2022/03/29 03:22:32;;;;;;;65.28;30.48;;;;;;;7.43;89.26;101490.06;5050545;28;20032;-32
2022/03/29 03:24:58;;;;;;;67.03;29.98;;;;;;;7.37;89.38;101473.72;5050514;28;20025;-34
2022/03/29 03:27:23;;;;;;;67.30;31.05;;;;;;;7.35;89.70;101462.34;5050924;28;20059;-33
2022/03/29 03:29:49;;;;;;;62.45;30.73;;;;;;;7.28;89.83;101454.03;5050198;28;20017;-33
2022/03/29 03:32:14;;;;;;;68.80;32.65;;;;;;;7.20;90.27;101460.09;5050114;28;20382;-36
2022/03/29 03:34:41;;;;;;;65.60;30.17;;;;;;;7.21;90.38;101452.91;5050637;28;20032;-32
2022/03/29 03:37:07;;;;;;;71.05;31.88;;;;;;;7.25;90.55;101460.53;5049087;28;20033;-33
2022/03/29 03:39:34;;;;;;;77.72;32.00;;;;;;;7.28;90.47;101461.22;5051264;28;20395;-35
2022/03/29 03:42:05;;;;;;;68.15;31.98;;;;;;;7.24;90.77;101455.28;5050866;28;20037;-33
2022/03/29 03:44:30;;;;;;;69.68;32.53;;;;;;;7.22;90.90;101455.47;5048191;28;20363;-35
2022/03/29 03:46:57;;;;;;;65.72;31.25;;;;;;;7.21;91.05;101456.47;5052215;28;20021;-35
2022/03/29 03:49:22;;;;;;;72.93;33.00;;;;;;;7.22;91.08;101450.09;5052864;28;20040;-33
2022/03/29 03:51:47;;;;;;;75.82;34.55;;;;;;;7.20;91.17;101444.03;5054460;28;20035;-36
2022/03/29 03:54:13;;;;;;;70.45;32.20;;;;;;;7.22;91.09;101444.75;5053825;28;20029;-33
2022/03/29 03:56:39;;;;;;;75.47;33.35;;;;;;;7.17;91.13;101446.19;5055283;28;20029;-34
2022/03/29 03:59:04;;;;;;;74.68;31.20;;;;;;;7.12;91.24;101435.06;5054367;28;20052;-34
2022/03/29 04:01:30;;;;;;;68.68;31.60;;;;;;;7.09;91.80;101436.19;5044878;28;20033;-35
2022/03/29 04:03:55;;;;;;;69.50;33.47;;;;;;;7.12;91.76;101430.53;5054464;28;20021;-33
2022/03/29 04:06:21;;;;;;;78.18;34.47;;;;;;;7.14;92.21;101425.91;5051809;28;20068;-34
2022/03/29 04:08:47;;;;;;;84.72;34.80;;;;;;;7.18;92.22;101424.59;5053302;28;20698;-32
2022/03/29 04:11:12;;;;;;;78.68;34.85;;;;;;;7.18;91.99;101424.59;5053029;28;20056;-36
2022/03/29 04:13:37;;;;;;;87.22;35.67;;;;;;;7.20;92.36;101425.31;5053900;28;20475;-33
2022/03/29 04:16:04;;;;;;;80.90;35.05;;;;;;;7.21;91.95;101416.31;5053877;28;20025;-32
2022/03/29 04:18:30;;;;;;;80.25;34.80;;;;;;;7.20;91.64;101419.94;5052981;28;20056;-32
2022/03/29 04:20:56;;;;;;;78.75;34.95;;;;;;;7.14;91.88;101419.72;5052852;28;20025;-32
2022/03/29 04:23:21;;;;;;;80.07;35.95;;;;;;;7.07;92.20;101418.59;5052309;28;20020;-32
2022/03/29 04:25:46;;;;;;;80.95;33.47;;;;;;;7.07;92.28;101414.06;5053380;28;20029;-35
2022/03/29 04:28:12;;;;;;;81.32;36.45;;;;;;;7.02;92.43;101417.19;5044339;28;20028;-35
2022/03/29 04:30:37;;;;;;;83.65;36.85;;;;;;;7.03;92.74;101412.69;5048926;28;20071;-34
2022/03/29 04:33:03;;;;;;;89.63;37.65;;;;;;;7.01;92.88;101410.16;5053432;28;20037;-36
2022/03/29 04:35:28;;;;;;;90.82;38.60;;;;;;;7.06;93.06;101412.41;5053310;28;20037;-33
2022/03/29 04:37:53;;;;;;;90.78;38.13;;;;;;;7.07;93.18;101414.06;5053726;28;20037;-37
2022/03/29 04:40:20;;;;;;;89.50;38.03;;;;;;;7.10;92.83;101413.78;5053624;28;20033;-35
2022/03/29 04:42:47;;;;;;;90.68;38.97;;;;;;;7.12;92.74;101414.47;5053629;28;20048;-36
2022/03/29 04:45:14;;;;;;;90.60;39.40;;;;;;;7.08;92.68;101410.41;5052670;28;20056;-33
2022/03/29 04:47:41;;;;;;;90.67;36.90;;;;;;;7.07;92.42;101413.25;5041721;28;20325;-32
2022/03/29 04:50:08;;;;;;;82.55;35.97;;;;;;;7.01;92.26;101401.28;5051954;28;20025;-38
2022/03/29 04:52:33;;;;;;;89.80;37.60;;;;;;;7.02;92.57;101409.16;5052335;28;20132;-33
2022/03/29 04:54:58;;;;;;;86.80;34.92;;;;;;;7.01;92.60;101401.28;5050814;28;20151;-33
2022/03/29 04:57:24;;;;;;;86.13;36.55;;;;;;;7.03;92.43;101394.81;5052706;28;20036;-33
2022/03/29 04:59:49;;;;;;;81.00;35.90;;;;;;;7.00;92.42;101389.75;5051716;28;20048;-33
2022/03/29 05:02:15;;;;;;;95.32;37.85;;;;;;;6.94;92.47;101397.50;5052853;28;20033;-35
2022/03/29 05:04:40;;;;;;;100.43;37.20;;;;;;;6.99;92.76;101392.56;5052639;28;20025;-32
2022/03/29 05:07:05;;;;;;;93.40;39.13;;;;;;;6.95;92.74;101399.16;5047653;28;20100;-34
2022/03/29 05:09:31;;;;;;;88.65;37.10;;;;;;;7.00;92.99;101402.25;5053301;28;20041;-33
2022/03/29 05:11:59;;;;;;;87.53;36.35;;;;;;;6.95;92.80;101404.50;5051802;28;20037;-33
2022/03/29 05:14:24;;;;;;;98.53;38.22;;;;;;;6.98;92.80;101398.91;5035659;28;20056;-34
2022/03/29 05:16:49;;;;;;;94.32;37.13;;;;;;;7.00;92.74;101396.91;5052032;28;20025;-32
2022/03/29 05:19:15;;;;;;;89.20;36.00;;;;;;;6.96;92.45;101400.88;5051536;28;20029;-32
2022/03/29 05:21:40;;;;;;;92.38;36.08;;;;;;;6.98;92.48;101398.91;5052029;28;20029;-36
2022/03/29 05:24:06;;;;;;;90.20;37.13;;;;;;;6.98;92.09;101393.56;5052342;28;20132;-34
2022/03/29 05:26:31;;;;;;;90.70;37.22;;;;;;;6.95;92.12;101399.16;5052614;28;20100;-34
2022/03/29 05:28:56;;;;;;;80.85;34.88;;;;;;;6.97;91.92;101407.91;5051871;28;20361;-32
2022/03/29 05:31:22;;;;;;;88.43;37.45;;;;;;;6.97;91.86;101411.41;5052438;28;20053;-35
2022/03/29 05:33:47;;;;;;;87.25;36.70;;;;;;;6.90;92.00;101401.44;5051814;28;20112;-33
2022/03/29 05:36:13;;;;;;;98.97;38.15;;;;;;;6.96;91.84;101406.22;5052594;28;20432;-34
2022/03/29 05:38:39;;;;;;;89.25;38.55;;;;;;;6.98;91.53;101405.09;5052075;28;20532;-33
2022/03/29 05:41:04;;;;;;;87.00;36.72;;;;;;;7.02;91.76;101402.97;5051874;28;20064;-36
2022/03/29 05:43:30;;;;;;;94.07;38.53;;;;;;;7.08;91.56;101405.03;5051781;28;20071;-32
2022/03/29 05:48:51;;;;;;;85.88;36.55;;;;;;;6.97;91.09;101406.06;5051518;28;20379;-33
2022/03/29 05:51:16;;;;;;;81.95;34.20;;;;;;;6.91;91.37;101408.50;5052173;28;20057;-33
2022/03/29 05:53:42;;;;;;;87.72;34.55;;;;;;;6.85;91.54;101406.41;5051480;28;20061;-36
2022/03/29 05:56:07;;;;;;;85.22;33.90;;;;;;;6.89;91.77;101399.75;5052253;28;20499;-33
2022/03/29 05:58:33;;;;;;;76.70;34.13;;;;;;;6.88;91.51;101400.75;5052033;28;20048;-33
2022/03/29 06:00:58;;;;;;;80.22;33.20;;;;;;;6.81;91.30;101408.50;5051467;28;20039;-33
2022/03/29 06:03:24;;;;;;;74.97;33.40;;;;;;;6.74;91.46;101402.03;5051976;28;20040;-34
2022/03/29 06:05:49;;;;;;;78.72;32.72;;;;;;;6.69;91.84;101405.16;5050127;28;20067;-33
2022/03/29 06:08:14;;;;;;;81.88;33.03;;;;;;;6.64;92.09;101402.06;5049952;28;20045;-32
2022/03/29 06:10:41;;;;;;;75.45;31.60;;;;;;;6.58;92.36;101386.56;5050670;28;20103;-36
2022/03/29 06:13:08;;;;;;;82.97;34.78;;;;;;;6.65;92.82;101386.84;5049148;28;20166;-33
2022/03/29 06:15:34;;;;;;;80.72;34.05;;;;;;;6.65;92.68;101393.03;5051849;28;20063;-33
2022/03/29 06:18:00;;;;;;;80.65;31.92;;;;;;;6.72;92.62;101390.66;5046865;28;20033;-34
2022/03/29 06:20:25;;;;;;;85.05;35.13;;;;;;;6.74;92.76;101392.19;5049463;28;20041;-36
2022/03/29 06:22:51;;;;;;;75.88;34.40;;;;;;;6.81;92.68;101387.09;5049061;28;20459;-32
2022/03/29 06:25:16;;;;;;;83.10;33.80;;;;;;;6.88;91.87;101398.06;5050136;28;20032;-36
2022/03/29 06:27:43;;;;;;;83.15;34.35;;;;;;;6.92;91.54;101394.09;5051360;28;20500;-35
2022/03/29 06:30:10;;;;;;;83.32;33.92;;;;;;;6.87;91.35;101397.22;5051122;28;20074;-36
2022/03/29 06:32:49;;;;;;;83.18;34.42;;;;;;;6.91;91.11;101403.97;5043432;28;20087;-32
2022/03/29 06:35:21;;;;;;;79.63;31.80;;;;;;;6.95;91.16;101404.50;5045817;28;20052;-35
2022/03/29 06:37:56;;;;;;;84.60;34.40;;;;;;;6.97;90.94;101402.53;5042985;28;20040;-32
2022/03/29 06:40:23;;;;;;;71.95;30.88;;;;;;;6.98;90.14;101401.56;5049710;28;20745;-34
2022/03/29 06:42:49;;;;;;;76.22;30.30;;;;;;;6.91;89.70;101403.13;5049967;28;20105;-35
2022/03/29 06:45:14;;;;;;;74.28;30.58;;;;;;;6.72;90.11;101398.66;5051230;28;20538;-33
2022/03/29 06:47:41;;;;;;;70.72;29.65;;;;;;;6.69;90.74;101409.63;5047674;28;20029;-35
2022/03/29 06:50:08;;;;;;;74.25;32.10;;;;;;;6.72;91.19;101399.50;5045056;28;20573;-31
2022/03/29 06:52:44;;;;;;;76.38;32.08;;;;;;;6.70;91.33;101409.50;5053212;28;20029;-36
2022/03/29 06:55:11;;;;;;;75.60;30.73;;;;;;;6.74;91.41;101400.22;5055437;28;20055;-35
2022/03/29 06:57:37;;;;;;;74.45;30.92;;;;;;;6.79;91.44;101405.97;5054543;28;20029;-34
2022/03/29 07:00:04;;;;;;;81.05;33.55;;;;;;;6.81;90.56;101395.13;5050849;28;20036;-32
2022/03/29 07:02:29;;;;;;;72.78;31.35;;;;;;;6.84;90.78;101407.38;5049589;28;20059;-34
2022/03/29 07:04:55;;;;;;;84.13;33.42;;;;;;;6.87;90.64;101415.09;5049337;28;20021;-32
2022/03/29 07:07:20;;;;;;;78.05;32.28;;;;;;;6.90;90.55;101409.44;5047578;28;20041;-35
2022/03/29 07:12:34;;;;;;;79.90;32.70;;;;;;;6.89;89.96;101399.75;5048240;28;20102;-32
2022/03/29 07:15:00;;;;;;;83.47;33.45;;;;;;;6.84;90.37;101404.69;5048440;28;20028;-34
2022/03/29 07:17:26;;;;;;;77.97;31.08;;;;;;;6.86;90.53;101410.75;5047890;28;20428;-32
2022/03/29 07:19:51;;;;;;;78.53;32.60;;;;;;;6.89;90.70;101405.09;5049872;28;20139;-33
2022/03/29 07:22:18;;;;;;;81.07;31.77;;;;;;;6.94;90.80;101402.84;5052081;28;20021;-31
2022/03/29 07:24:43;;;;;;;76.03;33.15;;;;;;;6.97;90.36;101407.91;5053794;28;20025;-33
2022/03/29 07:27:09;;;;;;;75.05;32.17;;;;;;;6.95;89.71;101401.84;5053862;28;20044;-35
2022/03/29 07:29:34;;;;;;;79.75;33.13;;;;;;;6.91;89.11;101403.13;5053209;28;20037;-36
2022/03/29 07:32:00;;;;;;;77.25;32.58;;;;;;;6.92;88.71;101402.97;5038940;28;20046;-34
2022/03/29 07:34:25;;;;;;;72.82;30.30;;;;;;;6.93;88.56;101396.66;5053666;28;20025;-35
2022/03/29 07:36:51;;;;;;;71.38;31.75;;;;;;;6.93;88.43;101395.81;5052992;28;20044;-36
2022/03/29 07:39:17;;;;;;;79.32;32.55;;;;;;;6.98;88.14;101394.38;5053126;28;20033;-35
2022/03/29 07:41:43;;;;;;;80.03;31.73;;;;;;;6.95;87.94;101388.47;5053135;28;20036;-33
2022/03/29 07:44:08;;;;;;;69.72;30.17;;;;;;;6.96;87.97;101395.53;5053542;28;20522;-31
2022/03/29 07:46:34;;;;;;;73.75;31.70;;;;;;;6.97;87.84;101397.19;5061248;28;20033;-33
2022/03/29 07:48:59;;;;;;;72.40;31.95;;;;;;;7.01;88.24;101388.75;5053213;28;20490;-34
2022/03/29 07:51:24;;;;;;;74.50;30.48;;;;;;;7.12;87.07;101393.06;5052352;28;20035;-32
2022/03/29 07:53:49;;;;;;;76.97;31.17;;;;;;;7.20;86.25;101395.84;5052916;28;20044;-31
2022/03/29 07:56:15;;;;;;;69.88;31.15;;;;;;;7.22;85.50;101390.38;5052699;28;20108;-34
2022/03/29 07:58:40;;;;;;;71.53;31.15;;;;;;;7.22;85.08;101390.38;5051376;28;20108;-34
2022/03/29 08:01:06;;;;;;;72.53;30.25;;;;;;;7.20;84.79;101387.00;5052185;28;20483;-31
2022/03/29 08:03:34;;;;;;;74.00;30.95;;;;;;;7.18;84.85;101384.44;5053106;28;20503;-33
2022/03/29 08:06:02;;;;;;;74.40;31.50;;;;;;;7.20;85.05;101387.00;5052765;28;20096;-32
2022/03/29 08:08:28;;;;;;;79.55;30.88;;;;;;;7.32;85.41;101385.81;5051205;28;20057;-33
2022/03/29 08:10:54;;;;;;;71.18;30.20;;;;;;;7.53;84.51;101388.28;5051900;28;20037;-33
2022/03/29 08:13:20;;;;;;;66.53;29.77;;;;;;;7.66;82.83;101378.03;5052682;28;20490;-33
2022/03/29 08:15:48;;;;;;;66.05;28.70;;;;;;;7.66;82.50;101377.19;5052240;28;20040;-33
2022/03/29 08:18:13;;;;;;;59.00;28.50;;;;;;;7.69;82.86;101380.41;5052784;28;20021;-32
2022/03/29 08:20:39;;;;;;;64.57;27.80;;;;;;;7.71;81.59;101382.94;5050566;28;20037;-32
2022/03/29 08:23:06;;;;;;;75.45;28.60;;;;;;;7.52;82.47;101397.28;5052347;28;20040;-32
2022/03/29 08:25:33;;;;;;;72.10;27.98;;;;;;;7.55;83.27;101402.34;5052492;28;20017;-31
2022/03/29 08:28:00;;;;;;;69.40;28.88;;;;;;;7.58;83.03;101402.06;5052345;28;20403;-32
2022/03/29 08:30:26;;;;;;;58.05;26.70;;;;;;;7.60;82.79;101397.38;5052381;28;20025;-32
2022/03/29 08:32:52;;;;;;;64.10;27.65;;;;;;;7.62;82.99;101400.75;5049064;28;20025;-32
2022/03/29 08:35:17;;;;;;;58.05;27.30;;;;;;;7.55;82.63;101396.97;5051345;28;20047;-31
2022/03/29 08:37:43;;;;;;;64.18;27.50;;;;;;;7.65;83.00;101392.41;5052239;28;20030;-33
2022/03/29 08:40:13;;;;;;;60.80;29.17;;;;;;;7.72;82.69;101392.66;5051709;28;20547;-31
2022/03/29 08:42:42;;;;;;;58.85;27.52;;;;;;;7.83;82.35;101386.25;5052221;28;20025;-31
2022/03/29 08:45:13;;;;;;;61.85;27.48;;;;;;;7.75;81.82;101383.50;5053193;28;20551;-34
2022/03/29 08:47:40;;;;;;;57.55;26.42;;;;;;;7.80;81.46;101379.38;5056515;28;20036;-34
2022/03/29 08:50:07;;;;;;;61.00;25.80;;;;;;;7.69;81.86;101380.41;5051504;28;20479;-34
2022/03/29 08:52:33;;;;;;;62.13;26.90;;;;;;;7.63;82.42;101375.63;5050371;28;20048;-34
2022/03/29 08:54:59;;;;;;;61.33;26.88;;;;;;;7.72;82.65;101367.72;5050728;28;20032;-35
2022/03/29 08:57:24;;;;;;;62.38;26.10;;;;;;;7.89;82.66;101372.25;5052164;28;20036;-32
2022/03/29 08:59:50;;;;;;;61.08;28.27;;;;;;;7.97;81.49;101376.84;5052336;28;20429;-32
2022/03/29 09:02:16;;;;;;;63.83;28.02;;;;;;;7.98;80.74;101381.22;5051225;28;20041;-34
2022/03/29 09:04:42;;;;;;;63.13;27.92;;;;;;;7.96;81.09;101373.34;5051867;28;20387;-31
2022/03/29 09:07:08;;;;;;;65.55;28.20;;;;;;;8.07;81.52;101381.16;5050704;28;20125;-32
2022/03/29 09:09:34;;;;;;;61.22;27.08;;;;;;;8.28;81.05;101385.38;5051492;28;20098;-34
2022/03/29 09:12:29;;;;;;;60.22;27.17;;;;;;;8.43;79.21;101375.81;5051770;28;20031;-33
2022/03/29 09:14:59;;;;;;;57.97;26.30;;;;;;;8.47;79.14;101376.34;5029130;28;20052;-36
2022/03/29 09:17:29;;;;;;;66.35;27.92;;;;;;;8.39;79.30;101381.59;5051252;28;20569;-36
2022/03/29 09:19:55;;;;;;;58.97;26.42;;;;;;;8.36;79.32;101375.56;5051558;28;20036;-37
2022/03/29 09:22:37;;;;;;;66.90;27.35;;;;;;;8.27;79.68;101373.81;5052128;28;20028;-33
2022/03/29 09:25:04;;;;;;;53.83;25.45;;;;;;;8.19;80.09;101375.56;5043123;28;20048;-32
2022/03/29 09:27:29;;;;;;;56.90;26.15;;;;;;;8.19;80.65;101372.88;5047645;28;20090;-34
2022/03/29 09:30:09;;;;;;;60.15;27.88;;;;;;;8.21;80.51;101371.72;5051508;28;20515;-33
2022/03/29 09:32:49;;;;;;;58.25;26.70;;;;;;;8.26;79.99;101372.09;5040786;28;20025;-32
2022/03/29 09:35:17;;;;;;;53.97;24.77;;;;;;;8.27;80.30;101375.66;5051246;28;20098;-34
2022/03/29 09:37:44;;;;;;;61.30;26.23;;;;;;;8.28;80.49;101372.78;5050804;28;20499;-33
2022/03/29 09:40:10;;;;;;;56.47;25.90;;;;;;;8.48;80.31;101360.09;5032960;28;20055;-33
2022/03/29 09:42:35;;;;;;;57.65;25.77;;;;;;;8.66;79.32;101356.53;5051252;28;20115;-34
2022/03/29 09:45:01;;;;;;;58.03;25.67;;;;;;;8.88;78.59;101353.34;5051340;28;20121;-34
2022/03/29 09:47:27;;;;;;;61.58;26.23;;;;;;;9.18;78.03;101359.19;5059191;28;20061;-35
2022/03/29 09:50:04;;;;;;;52.83;25.30;;;;;;;9.67;75.42;101359.41;5049393;28;20111;-36
2022/03/29 09:52:32;;;;;;;55.80;23.95;;;;;;;9.98;73.59;101359.66;5050386;28;20036;-32
2022/03/29 09:55:06;;;;;;;49.15;23.58;;;;;;;9.98;73.23;101350.72;5049158;28;20634;-38
2022/03/29 09:57:58;;;;;;;53.90;24.17;;;;;;;9.91;73.08;101355.09;5050830;28;20037;-33
2022/03/29 10:00:30;;;;;;;52.55;23.50;;;;;;;9.95;72.98;101348.38;5047705;28;20086;-33
2022/03/29 10:02:55;;;;;;;55.40;23.70;;;;;;;9.98;72.83;101350.72;5050173;28;20122;-33
2022/03/29 10:05:22;;;;;;;50.17;24.05;;;;;;;9.76;73.15;101353.03;5050096;28;20124;-32
2022/03/29 10:10:46;;;;;;;52.58;25.15;;;;;;;9.96;74.18;101342.00;5029938;28;20075;-32
2022/03/29 10:13:13;;;;;;;48.63;22.67;;;;;;;10.16;71.98;101343.34;5043877;28;20102;-31
2022/03/29 10:15:39;;;;;;;45.65;22.38;;;;;;;10.09;71.16;101339.66;5049971;28;20025;-31
2022/03/29 10:18:04;;;;;;;46.65;22.95;;;;;;;10.04;71.61;101333.94;5035074;28;20025;-35
2022/03/29 10:20:30;;;;;;;48.67;23.30;;;;;;;10.37;70.98;101324.06;5035231;28;20099;-34
2022/03/29 10:22:56;;;;;;;46.33;22.27;;;;;;;10.51;69.87;101347.63;5049484;28;20024;-32
2022/03/29 10:25:22;;;;;;;48.38;23.20;;;;;;;10.48;69.62;101337.19;5050058;28;20090;-33
2022/03/29 10:27:48;;;;;;;47.30;22.42;;;;;;;10.26;70.20;101337.81;5048956;28;20017;-33
2022/03/29 10:30:30;;;;;;;47.80;22.83;;;;;;;10.22;70.56;101337.31;5050341;28;20033;-34
2022/03/29 10:33:17;;;;;;;43.78;21.48;;;;;;;10.12;70.55;101336.63;5047550;28;20021;-35
2022/03/29 10:36:02;;;;;;;56.65;21.58;;;;;;;9.97;69.90;101338.28;5050013;28;20037;-32
2022/03/29 10:38:45;;;;;;;48.03;21.40;;;;;;;9.86;70.85;101334.09;5049593;28;20021;-31
2022/03/29 10:41:26;;;;;;;45.20;21.90;;;;;;;9.91;70.62;101334.44;5050247;28;20064;-33
2022/03/29 10:44:08;;;;;;;50.92;22.90;;;;;;;9.93;70.76;101327.03;5049773;28;20029;-31
2022/03/29 10:46:36;;;;;;;41.90;21.63;;;;;;;10.10;70.22;101323.34;5049705;28;20036;-31
2022/03/29 10:49:18;;;;;;;;;;;;;;;10.16;70.25;101315.63;5050243;28;20337;-36
2022/03/29 10:51:44;;;;;;;49.35;20.92;;;;;;;10.05;70.17;101317.63;5049714;28;19917;-33
2022/03/29 10:54:52;;;;;;;45.92;22.20;;;;;;;10.04;70.64;101325.88;5042446;28;20341;-33
2022/03/29 10:57:20;;;;;;;43.95;21.85;;;;;;;9.94;70.69;101317.97;4971347;28;20034;-34
2022/03/29 11:00:10;;;;;;;43.47;20.30;;;;;;;9.98;71.27;101311.25;4987973;28;20076;-34
2022/03/29 11:02:35;;;;;;;49.80;22.88;;;;;;;10.06;71.72;101313.13;5024488;28;20041;-33
2022/03/29 11:05:11;;;;;;;50.83;22.50;;;;;;;10.14;71.22;101304.19;5049406;28;20055;-35
2022/03/29 11:07:52;;;;;;;46.92;22.20;;;;;;;10.41;69.66;101303.06;5049211;28;20112;-34
2022/03/29 11:10:23;;;;;;;39.10;21.33;;;;;;;10.68;68.97;101297.28;5049852;28;20411;-36
2022/03/29 11:12:56;;;;;;;49.70;21.08;;;;;;;10.93;67.26;101297.22;5050038;28;20021;-34
2022/03/29 11:15:25;;;;;;;49.90;21.17;;;;;;;11.34;66.60;101294.34;5048799;28;20025;-33
2022/03/29 11:18:01;;;;;;;41.50;21.10;;;;;;;12.03;64.75;101292.63;5048891;28;20025;-35
2022/03/29 11:20:34;;;;;;;41.72;21.60;;;;;;;12.57;62.06;101296.19;5048746;28;20028;-34
2022/03/29 11:23:00;;;;;;;43.55;20.35;;;;;;;13.16;60.64;101296.19;5049594;28;20032;-35
2022/03/29 11:25:26;;;;;;;44.75;21.35;;;;;;;13.16;60.01;101290.81;5049705;28;20025;-34
2022/03/29 11:27:52;;;;;;;42.55;21.48;;;;;;;13.46;59.62;101282.69;5049346;28;20048;-33